createdAt,value
2023-05-24T00:02:29.270Z,11.27
2023-05-24T00:04:56.349Z,9.37
2023-05-24T00:07:23.346Z,10.50
2023-05-24T00:09:50.488Z,11.33
2023-05-24T00:12:17.617Z,10.13
2023-05-24T00:14:44.730Z,11.07
2023-05-24T00:17:12.877Z,11.30
2023-05-24T00:19:40.259Z,9.53
2023-05-24T00:22:07.255Z,11.90
2023-05-24T00:24:34.270Z,10.87
2023-05-24T00:27:01.361Z,11.60
2023-05-24T00:29:30.209Z,11.27
2023-05-24T00:31:58.677Z,11.20
2023-05-24T00:34:25.688Z,10.80
2023-05-24T00:36:52.676Z,11.00
2023-05-24T00:39:19.641Z,11.03
2023-05-24T00:41:46.840Z,10.93
2023-05-24T00:44:13.912Z,11.10
2023-05-24T00:46:41.689Z,11.20
2023-05-24T00:49:09.592Z,11.20
2023-05-24T00:51:38.512Z,10.93
2023-05-24T00:54:06.908Z,10.53
2023-05-24T00:56:34.359Z,10.60
2023-05-24T00:59:02.063Z,10.33
2023-05-24T01:01:31.511Z,11.00
2023-05-24T01:03:59.871Z,10.60
2023-05-24T01:06:28.552Z,9.73
2023-05-24T01:09:01.215Z,10.47
2023-05-24T01:11:55.141Z,9.43
2023-05-24T01:14:46.863Z,9.77
2023-05-24T01:17:39.687Z,10.50
2023-05-24T01:20:12.240Z,9.97
2023-05-24T01:22:44.920Z,9.57
2023-05-24T01:25:37.395Z,7.57
2023-05-24T01:28:05.348Z,6.57
2023-05-24T01:30:33.384Z,6.10
2023-05-24T01:33:00.783Z,6.43
2023-05-24T01:35:27.887Z,5.30
2023-05-24T01:37:54.763Z,6.53
2023-05-24T01:40:21.971Z,6.37
2023-05-24T01:42:57.968Z,5.67
2023-05-24T01:45:48.526Z,6.17
2023-05-24T01:48:48.430Z,4.53
2023-05-24T01:51:18.828Z,5.57
2023-05-24T01:53:49.006Z,5.33
2023-05-24T01:56:17.422Z,5.63
2023-05-24T01:58:46.728Z,6.33
2023-05-24T02:01:14.415Z,5.83
2023-05-24T02:03:41.525Z,5.27
2023-05-24T02:06:08.704Z,5.80
2023-05-24T02:08:35.594Z,4.23
2023-05-24T02:11:02.804Z,4.23
2023-05-24T02:13:29.672Z,6.07
2023-05-24T02:15:56.640Z,6.03
2023-05-24T02:18:23.441Z,5.40
2023-05-24T02:20:50.918Z,5.33
2023-05-24T02:23:18.098Z,5.70
2023-05-24T02:25:45.101Z,4.63
2023-05-24T02:28:12.032Z,4.67
2023-05-24T02:30:39.734Z,4.60
2023-05-24T02:33:06.997Z,5.33
2023-05-24T02:35:34.466Z,6.03
2023-05-24T02:38:02.630Z,5.13
2023-05-24T02:40:29.722Z,5.20
2023-05-24T02:42:56.689Z,5.40
2023-05-24T02:45:23.903Z,5.57
2023-05-24T02:47:51.072Z,6.10
2023-05-24T02:50:18.270Z,5.60
2023-05-24T02:52:45.342Z,5.53
2023-05-24T02:55:12.297Z,4.47
2023-05-24T02:57:39.501Z,5.90
2023-05-24T03:00:09.589Z,6.00
2023-05-24T03:02:38.620Z,5.07
2023-05-24T03:05:06.158Z,5.37
2023-05-24T03:07:33.160Z,5.33
2023-05-24T03:10:00.177Z,5.73
2023-05-24T03:12:27.294Z,5.60
2023-05-24T03:14:54.284Z,5.23
2023-05-24T03:17:21.443Z,5.90
2023-05-24T03:19:48.650Z,5.40
2023-05-24T03:22:15.785Z,6.10
2023-05-24T03:24:42.780Z,5.53
2023-05-24T03:27:09.617Z,5.60
2023-05-24T03:29:36.640Z,5.50
2023-05-24T03:32:04.241Z,5.00
2023-05-24T03:34:31.619Z,4.50
2023-05-24T03:36:58.604Z,4.43
2023-05-24T03:39:25.896Z,4.43
2023-05-24T03:41:52.883Z,4.70
2023-05-24T03:44:19.865Z,4.60
2023-05-24T03:46:46.802Z,4.70
2023-05-24T03:49:13.723Z,4.70
2023-05-24T03:51:40.658Z,4.57
2023-05-24T03:54:07.675Z,3.87
2023-05-24T03:56:34.652Z,4.57
2023-05-24T03:59:04.059Z,4.03
2023-05-24T04:01:36.557Z,3.80
2023-05-24T04:04:04.261Z,4.20
2023-05-24T04:06:31.434Z,4.23
2023-05-24T04:08:59.700Z,3.23
2023-05-24T04:11:29.359Z,4.27
2023-05-24T04:13:57.285Z,4.27
2023-05-24T04:16:26.235Z,3.53
2023-05-24T04:18:57.601Z,4.13
2023-05-24T04:21:24.664Z,4.50
2023-05-24T04:23:51.801Z,3.90
2023-05-24T04:26:19.089Z,4.27
2023-05-24T04:28:46.851Z,3.70
2023-05-24T04:31:15.754Z,4.17
2023-05-24T04:33:42.827Z,4.10
2023-05-24T04:36:11.468Z,3.67
2023-05-24T04:38:41.141Z,4.53
2023-05-24T04:41:08.197Z,3.77
2023-05-24T04:43:35.271Z,4.03
2023-05-24T04:46:02.311Z,4.10
2023-05-24T04:48:29.452Z,4.43
2023-05-24T04:50:58.092Z,3.33
2023-05-24T04:53:25.929Z,3.60
2023-05-24T04:55:53.334Z,3.83
2023-05-24T04:58:20.314Z,3.63
2023-05-24T05:00:47.334Z,3.70
2023-05-24T05:03:15.394Z,2.90
2023-05-24T05:05:42.611Z,4.13
2023-05-24T05:08:09.868Z,4.10
2023-05-24T05:10:37.523Z,3.73
2023-05-24T05:13:04.758Z,4.33
2023-05-24T05:15:32.656Z,3.83
2023-05-24T05:17:59.856Z,3.43
2023-05-24T05:20:26.927Z,4.47
2023-05-24T05:22:53.932Z,3.90
2023-05-24T05:25:21.282Z,3.63
2023-05-24T05:27:48.221Z,4.10
2023-05-24T05:30:15.425Z,3.60
2023-05-24T05:32:42.477Z,4.00
2023-05-24T05:35:09.700Z,3.93
2023-05-24T05:37:36.795Z,3.70
2023-05-24T05:40:04.685Z,3.43
2023-05-24T05:42:31.613Z,4.10
2023-05-24T05:44:58.610Z,4.13
2023-05-24T05:47:25.537Z,3.10
2023-05-24T05:49:52.501Z,3.77
2023-05-24T05:52:19.554Z,4.47
2023-05-24T05:54:46.826Z,3.47
2023-05-24T05:57:14.014Z,3.87
2023-05-24T05:59:41.289Z,3.43
2023-05-24T06:02:08.750Z,4.37
2023-05-24T06:04:35.835Z,4.20
2023-05-24T06:07:02.914Z,3.90
2023-05-24T06:09:29.881Z,3.87
2023-05-24T06:11:56.885Z,4.13
2023-05-24T06:14:25.216Z,4.17
2023-05-24T06:16:56.234Z,4.17
2023-05-24T06:19:25.045Z,4.67
2023-05-24T06:21:52.175Z,4.60
2023-05-24T06:24:22.718Z,4.37
2023-05-24T06:26:51.583Z,4.10
2023-05-24T06:29:22.577Z,3.77
2023-05-24T06:31:50.364Z,4.40
2023-05-24T06:34:21.062Z,4.07
2023-05-24T06:36:48.800Z,4.20
2023-05-24T06:39:16.476Z,4.00
2023-05-24T06:41:44.668Z,4.30
2023-05-24T06:44:12.017Z,5.37
2023-05-24T06:46:39.625Z,4.07
2023-05-24T06:49:07.152Z,4.30
2023-05-24T06:51:34.559Z,4.40
2023-05-24T06:54:01.645Z,3.67
2023-05-24T06:56:29.171Z,4.00
2023-05-24T06:58:56.909Z,4.80
2023-05-24T07:01:23.967Z,4.40
2023-05-24T07:03:51.090Z,4.53
2023-05-24T07:06:18.864Z,4.50
2023-05-24T07:08:45.834Z,4.97
2023-05-24T07:11:13.020Z,4.30
2023-05-24T07:13:39.956Z,4.80
2023-05-24T07:16:07.203Z,4.57
2023-05-24T07:18:34.175Z,4.67
2023-05-24T07:21:01.390Z,3.10
2023-05-24T07:23:28.495Z,5.00
2023-05-24T07:25:55.392Z,5.20
2023-05-24T07:28:22.529Z,4.90
2023-05-24T07:30:51.312Z,4.80
2023-05-24T07:33:18.722Z,3.80
2023-05-24T07:35:51.255Z,4.47
2023-05-24T07:38:18.786Z,4.13
2023-05-24T07:40:45.814Z,4.30
2023-05-24T07:43:12.882Z,4.83
2023-05-24T07:45:40.050Z,4.70
2023-05-24T07:48:07.204Z,4.13
2023-05-24T07:50:34.292Z,3.90
2023-05-24T07:53:01.233Z,4.80
2023-05-24T07:55:28.476Z,4.70
2023-05-24T07:57:56.686Z,4.97
2023-05-24T08:00:23.838Z,4.53
2023-05-24T08:02:51.467Z,4.70
2023-05-24T08:05:19.039Z,4.57
2023-05-24T08:07:46.614Z,4.50
2023-05-24T08:10:14.006Z,5.00
2023-05-24T08:12:42.920Z,3.90
2023-05-24T08:15:11.023Z,3.63
2023-05-24T08:17:41.422Z,4.33
2023-05-24T08:20:16.006Z,3.77
2023-05-24T08:22:43.655Z,4.67
2023-05-24T08:25:13.842Z,4.87
2023-05-24T08:27:41.272Z,4.57
2023-05-24T08:30:09.107Z,4.67
2023-05-24T08:32:36.554Z,5.20
2023-05-24T08:35:19.467Z,4.87
2023-05-24T08:37:48.234Z,5.00
2023-05-24T08:40:15.475Z,5.50
2023-05-24T08:42:43.016Z,4.83
2023-05-24T08:45:13.078Z,5.00
2023-05-24T08:47:41.200Z,4.80
2023-05-24T08:50:08.995Z,4.60
2023-05-24T08:52:36.926Z,5.00
2023-05-24T08:55:08.653Z,4.87
2023-05-24T08:57:41.263Z,5.17
2023-05-24T09:00:11.623Z,5.17
2023-05-24T09:02:43.766Z,5.03
2023-05-24T09:05:12.804Z,5.03
2023-05-24T09:07:40.889Z,4.70
2023-05-24T09:10:09.478Z,5.20
2023-05-24T09:12:39.526Z,4.87
2023-05-24T09:15:08.896Z,4.60
2023-05-24T09:17:37.463Z,5.20
2023-05-24T09:20:11.098Z,4.57
2023-05-24T09:22:42.001Z,4.17
2023-05-24T09:25:11.413Z,4.90
2023-05-24T09:27:39.162Z,4.83
2023-05-24T09:30:11.042Z,5.50
2023-05-24T09:32:38.695Z,4.80
2023-05-24T09:35:10.211Z,4.30
2023-05-24T09:37:40.667Z,5.80
2023-05-24T09:40:18.593Z,5.60
2023-05-24T09:42:46.587Z,5.23
2023-05-24T09:45:13.577Z,4.60
2023-05-24T09:47:41.804Z,4.83
2023-05-24T09:50:13.788Z,4.83
2023-05-24T09:52:41.566Z,5.40
2023-05-24T09:55:27.854Z,5.00
2023-05-24T09:58:04.336Z,4.27
2023-05-24T10:00:41.253Z,4.40
2023-05-24T10:03:11.983Z,4.57
2023-05-24T10:05:45.454Z,4.13
2023-05-24T10:08:14.487Z,3.27
2023-05-24T10:10:42.801Z,4.33
2023-05-24T10:13:11.617Z,4.93
2023-05-24T10:15:38.959Z,5.43
2023-05-24T10:18:10.600Z,5.03
2023-05-24T10:20:41.679Z,4.80
2023-05-24T10:23:11.156Z,5.60
2023-05-24T10:25:42.006Z,4.33
2023-05-24T10:28:12.503Z,4.53
2023-05-24T10:31:08.360Z,4.20
2023-05-24T10:33:37.548Z,4.57
2023-05-24T10:36:09.668Z,5.00
2023-05-24T10:38:41.610Z,5.13
2023-05-24T10:41:09.155Z,4.73
2023-05-24T10:43:37.703Z,4.87
2023-05-24T10:46:05.815Z,4.50
2023-05-24T10:48:36.194Z,5.50
2023-05-24T10:51:39.670Z,5.43
2023-05-24T10:54:13.120Z,4.67
2023-05-24T10:56:43.044Z,4.60
2023-05-24T10:59:22.029Z,4.50
2023-05-24T11:01:56.198Z,5.17
2023-05-24T11:04:23.433Z,4.90
2023-05-24T11:07:05.628Z,5.73
2023-05-24T11:09:33.551Z,5.57
2023-05-24T11:12:13.765Z,5.17
2023-05-24T11:14:41.006Z,5.37
2023-05-24T11:17:08.880Z,5.00
2023-05-24T11:19:45.857Z,5.53
2023-05-24T11:22:15.073Z,5.40
2023-05-24T11:24:42.866Z,5.40
2023-05-24T11:27:13.075Z,5.10
2023-05-24T11:29:50.346Z,4.20
2023-05-24T11:32:19.989Z,5.60
2023-05-24T11:34:47.934Z,5.03
2023-05-24T11:37:17.613Z,5.57
2023-05-24T11:39:53.007Z,5.70
2023-05-24T11:42:23.452Z,5.57
2023-05-24T11:44:51.737Z,5.30
2023-05-24T11:47:20.888Z,5.60
2023-05-24T11:49:52.666Z,5.23
2023-05-24T11:52:21.147Z,4.97
2023-05-24T11:54:50.170Z,6.30
2023-05-24T11:57:22.729Z,6.00
2023-05-24T11:59:51.294Z,5.07
2023-05-24T12:02:23.239Z,6.10
2023-05-24T12:04:51.530Z,5.83
2023-05-24T12:07:19.415Z,5.37
2023-05-24T12:09:46.931Z,5.00
2023-05-24T12:12:14.008Z,4.93
2023-05-24T12:14:41.224Z,5.10
2023-05-24T12:17:17.147Z,4.87
2023-05-24T12:19:44.362Z,5.10
2023-05-24T12:22:11.576Z,4.97
2023-05-24T12:24:38.646Z,5.30
2023-05-24T12:27:07.883Z,5.17
2023-05-24T12:29:37.172Z,5.53
2023-05-24T12:32:04.650Z,5.60
2023-05-24T12:34:32.412Z,5.33
2023-05-24T12:37:00.325Z,5.00
2023-05-24T12:39:31.896Z,5.10
2023-05-24T12:42:01.889Z,5.47
2023-05-24T12:44:36.707Z,5.30
2023-05-24T12:47:06.666Z,5.27
2023-05-24T12:49:34.223Z,4.90
2023-05-24T12:52:04.393Z,4.63
2023-05-24T12:54:31.993Z,5.30
2023-05-24T12:57:00.435Z,5.00
2023-05-24T12:59:28.842Z,4.70
2023-05-24T13:01:56.664Z,5.10
2023-05-24T13:04:27.423Z,4.83
2023-05-24T13:06:55.623Z,5.33
2023-05-24T13:09:23.744Z,4.03
2023-05-24T13:11:51.460Z,5.77
2023-05-24T13:14:19.910Z,4.50
2023-05-24T13:16:47.654Z,4.53
2023-05-24T13:19:14.811Z,5.17
2023-05-24T13:21:41.977Z,4.63
2023-05-24T13:24:09.180Z,4.40
2023-05-24T13:26:38.097Z,4.73
2023-05-24T13:31:40.694Z,3.60
2023-05-24T13:34:11.894Z,4.53
2023-05-24T13:36:39.311Z,4.53
2023-05-24T13:41:40.191Z,4.23
2023-05-24T13:44:07.511Z,4.57
2023-05-24T13:46:36.516Z,5.30
2023-05-24T13:49:04.496Z,4.93
2023-05-24T13:51:31.811Z,4.60
2023-05-24T13:53:59.717Z,3.43
2023-05-24T13:56:32.611Z,3.50
2023-05-24T13:59:03.841Z,5.30
2023-05-24T14:01:31.376Z,4.77
2023-05-24T14:03:58.668Z,3.80
2023-05-24T14:06:25.756Z,4.50
2023-05-24T14:08:53.615Z,4.97
2023-05-24T14:11:22.381Z,4.57
2023-05-24T14:16:19.702Z,5.00
2023-05-24T14:18:49.027Z,3.43
2023-05-24T14:21:16.398Z,4.53
2023-05-24T14:23:43.548Z,4.47
2023-05-24T14:26:10.664Z,4.00
2023-05-24T14:28:37.813Z,3.80
2023-05-24T14:31:04.976Z,3.63
2023-05-24T14:33:31.977Z,4.30
2023-05-24T14:35:58.936Z,3.97
2023-05-24T14:38:25.963Z,3.70
2023-05-24T14:40:57.265Z,4.40
2023-05-24T14:43:26.208Z,3.77
2023-05-24T14:45:53.298Z,4.00
2023-05-24T14:48:20.648Z,3.70
2023-05-24T14:50:47.641Z,3.50
2023-05-24T14:53:15.112Z,3.60
2023-05-24T14:55:43.457Z,3.40
2023-05-24T14:58:14.360Z,3.80
2023-05-24T15:00:43.043Z,4.20
2023-05-24T15:03:12.757Z,4.20
2023-05-24T15:05:41.434Z,4.77
2023-05-24T15:08:10.956Z,4.73
2023-05-24T15:10:41.105Z,3.83
2023-05-24T15:13:08.565Z,4.03
2023-05-24T15:15:35.914Z,3.57
2023-05-24T15:18:02.945Z,3.57
2023-05-24T15:20:30.011Z,4.17
2023-05-24T15:22:57.213Z,3.83
2023-05-24T15:25:24.260Z,3.47
2023-05-24T15:27:51.433Z,3.70
2023-05-24T15:30:24.105Z,3.57
2023-05-24T15:32:51.557Z,3.70
2023-05-24T15:35:18.664Z,3.33
2023-05-24T15:37:46.237Z,2.90
2023-05-24T15:40:13.782Z,4.30
2023-05-24T15:42:40.910Z,3.10
2023-05-24T15:45:08.660Z,2.57
2023-05-24T15:47:39.738Z,3.13
2023-05-24T15:50:08.594Z,2.67
2023-05-24T15:52:36.393Z,2.93
2023-05-24T15:55:07.080Z,2.83
2023-05-24T15:57:34.236Z,2.93
2023-05-24T16:00:02.165Z,3.63
2023-05-24T16:02:31.922Z,3.03
2023-05-24T16:04:58.936Z,3.13
2023-05-24T16:07:26.018Z,2.30
2023-05-24T16:09:53.020Z,3.00
2023-05-24T16:12:20.245Z,3.63
2023-05-24T16:14:47.136Z,3.30
2023-05-24T16:17:15.402Z,2.90
2023-05-24T16:19:42.526Z,2.33
2023-05-24T16:22:09.759Z,3.53
2023-05-24T16:24:36.950Z,3.40
2023-05-24T16:27:04.329Z,3.33
2023-05-24T16:29:31.420Z,3.27
2023-05-24T16:31:58.392Z,3.13
2023-05-24T16:34:25.501Z,3.00
2023-05-24T16:36:52.798Z,3.40
2023-05-24T16:39:19.892Z,3.00
2023-05-24T16:41:47.604Z,3.00
2023-05-24T16:44:17.910Z,3.37
2023-05-24T16:46:45.707Z,3.20
2023-05-24T16:49:13.270Z,3.67
2023-05-24T16:51:40.590Z,3.10
2023-05-24T16:54:08.938Z,3.10
2023-05-24T16:56:37.829Z,3.20
2023-05-24T16:59:05.471Z,3.10
2023-05-24T17:01:32.841Z,3.10
2023-05-24T17:04:00.195Z,3.37
2023-05-24T17:06:27.500Z,3.30
2023-05-24T17:08:54.554Z,3.23
2023-05-24T17:11:23.261Z,3.33
2023-05-24T17:13:51.579Z,3.60
2023-05-24T17:16:18.897Z,3.40
2023-05-24T17:18:46.139Z,3.27
2023-05-24T17:21:13.122Z,3.23
2023-05-24T17:23:40.181Z,2.90
2023-05-24T17:26:10.128Z,3.67
2023-05-24T17:28:37.272Z,4.10
2023-05-24T17:31:04.556Z,3.50
2023-05-24T17:33:32.320Z,3.33
2023-05-24T17:36:02.972Z,3.80
2023-05-24T17:38:33.135Z,3.10
2023-05-24T17:41:00.617Z,3.60
2023-05-24T17:43:34.604Z,2.83
2023-05-24T17:46:08.698Z,3.13
2023-05-24T17:48:43.665Z,3.80
2023-05-24T17:51:11.110Z,2.87
2023-05-24T17:53:38.908Z,3.33
2023-05-24T17:56:06.865Z,2.97
2023-05-24T17:58:36.286Z,3.13
2023-05-24T18:01:05.398Z,2.83
2023-05-24T18:03:33.689Z,3.00
2023-05-24T18:06:01.260Z,2.90
2023-05-24T18:08:28.461Z,3.10
2023-05-24T18:10:55.822Z,2.87
2023-05-24T18:13:23.020Z,3.17
2023-05-24T18:15:51.447Z,2.90
2023-05-24T18:18:18.457Z,2.90
2023-05-24T18:20:45.566Z,2.43
2023-05-24T18:23:12.579Z,2.83
2023-05-24T18:25:39.483Z,3.17
2023-05-24T18:28:07.444Z,2.90
2023-05-24T18:30:34.426Z,2.70
2023-05-24T18:33:07.130Z,2.90
2023-05-24T18:35:35.188Z,2.80
2023-05-24T18:38:02.451Z,2.97
2023-05-24T18:40:29.349Z,2.73
2023-05-24T18:42:56.623Z,3.20
2023-05-24T18:45:23.740Z,2.77
2023-05-24T18:47:51.201Z,3.20
2023-05-24T18:50:23.288Z,2.90
2023-05-24T18:52:50.847Z,2.77
2023-05-24T18:55:18.225Z,2.80
2023-05-24T18:57:45.376Z,2.97
2023-05-24T19:00:13.222Z,2.87
2023-05-24T19:02:40.950Z,2.93
2023-05-24T19:05:09.136Z,2.67
2023-05-24T19:07:37.034Z,3.50
2023-05-24T19:10:04.808Z,3.00
2023-05-24T19:12:32.053Z,3.40
2023-05-24T19:15:02.558Z,3.33
2023-05-24T19:17:29.813Z,3.40
2023-05-24T19:19:56.930Z,2.87
2023-05-24T19:22:26.279Z,3.07
2023-05-24T19:24:53.557Z,2.57
2023-05-24T19:27:20.489Z,3.20
2023-05-24T19:29:47.461Z,3.60
2023-05-24T19:32:14.829Z,2.93
2023-05-24T19:34:42.317Z,3.40
2023-05-24T19:37:09.881Z,3.40
2023-05-24T19:39:37.695Z,3.47
2023-05-24T19:42:05.111Z,2.83
2023-05-24T19:44:32.323Z,3.17
2023-05-24T19:46:59.511Z,3.10
2023-05-24T19:49:26.603Z,3.40
2023-05-24T19:51:53.796Z,3.23
2023-05-24T19:54:21.232Z,2.80
2023-05-24T19:56:50.735Z,2.80
2023-05-24T19:59:18.860Z,2.80
2023-05-24T20:01:46.020Z,2.80
2023-05-24T20:04:13.703Z,2.80
2023-05-24T20:06:41.230Z,3.20
2023-05-24T20:09:08.695Z,2.90
2023-05-24T20:11:35.850Z,2.73
2023-05-24T20:14:03.124Z,3.17
2023-05-24T20:16:31.137Z,3.03
2023-05-24T20:18:58.228Z,3.20
2023-05-24T20:21:25.250Z,3.23
2023-05-24T20:23:57.681Z,3.33
2023-05-24T20:26:25.975Z,3.17
2023-05-24T20:28:53.123Z,3.40
2023-05-24T20:31:20.120Z,3.30
2023-05-24T20:33:47.299Z,3.23
2023-05-24T20:36:15.518Z,2.70
2023-05-24T20:38:42.815Z,2.60
2023-05-24T20:41:09.780Z,3.27
2023-05-24T20:43:36.757Z,3.30
2023-05-24T20:46:03.794Z,3.23
2023-05-24T20:48:30.874Z,2.80
2023-05-24T20:50:58.189Z,2.57
2023-05-24T20:53:25.120Z,3.10
2023-05-24T20:55:52.258Z,2.90
2023-05-24T20:58:19.299Z,3.00
2023-05-24T21:00:46.659Z,3.07
2023-05-24T21:03:13.705Z,3.70
2023-05-24T21:05:40.722Z,3.50
2023-05-24T21:08:07.879Z,3.37
2023-05-24T21:10:35.238Z,3.70
2023-05-24T21:13:02.061Z,2.93
2023-05-24T21:15:28.958Z,2.40
2023-05-24T21:17:55.931Z,3.27
2023-05-24T21:20:22.959Z,3.20
2023-05-24T21:22:50.500Z,2.90
2023-05-24T21:25:17.743Z,2.97
2023-05-24T21:27:44.861Z,3.20
2023-05-24T21:30:15.457Z,2.97
2023-05-24T21:32:42.552Z,2.77
2023-05-24T21:35:09.629Z,2.67
2023-05-24T21:37:36.826Z,3.20
2023-05-24T21:40:05.276Z,2.77
2023-05-24T21:42:32.262Z,2.87
2023-05-24T21:44:59.553Z,2.70
2023-05-24T21:47:26.714Z,2.97
2023-05-24T21:49:54.944Z,3.00
2023-05-24T21:52:22.183Z,3.00
2023-05-24T21:54:49.248Z,3.13
2023-05-24T21:57:16.209Z,3.00
2023-05-24T21:59:43.089Z,2.47
2023-05-24T22:02:10.146Z,2.90
2023-05-24T22:04:37.083Z,2.73
2023-05-24T22:07:04.308Z,2.77
2023-05-24T22:09:31.310Z,2.70
2023-05-24T22:11:58.297Z,2.60
2023-05-24T22:14:25.256Z,2.73
2023-05-24T22:16:52.419Z,2.73
2023-05-24T22:19:28.452Z,2.87
2023-05-24T22:21:59.677Z,2.70
2023-05-24T22:24:27.344Z,3.00
2023-05-24T22:26:55.889Z,3.00
2023-05-24T22:29:22.920Z,2.33
2023-05-24T22:31:49.862Z,2.67
2023-05-24T22:34:26.596Z,2.73
2023-05-24T22:36:53.673Z,2.70
2023-05-24T22:39:20.770Z,2.60
2023-05-24T22:41:47.764Z,2.93
2023-05-24T22:44:14.832Z,2.67
2023-05-24T22:46:41.983Z,2.30
2023-05-24T22:49:13.283Z,3.03
2023-05-24T22:51:44.516Z,2.27
2023-05-24T22:54:11.819Z,2.40
2023-05-24T22:56:39.152Z,2.30
2023-05-24T22:59:07.080Z,2.60
2023-05-24T23:01:34.460Z,2.73
2023-05-24T23:04:15.853Z,2.30
2023-05-24T23:06:47.269Z,2.80
2023-05-24T23:09:14.403Z,2.50
2023-05-24T23:11:43.041Z,2.00
2023-05-24T23:14:11.087Z,2.40
2023-05-24T23:16:40.310Z,2.07
2023-05-24T23:19:07.328Z,2.50
2023-05-24T23:21:37.000Z,1.70
2023-05-24T23:24:05.182Z,2.53
2023-05-24T23:26:32.170Z,2.33
2023-05-24T23:28:59.331Z,2.60
2023-05-24T23:31:26.375Z,1.80
2023-05-24T23:33:53.413Z,2.60
2023-05-24T23:36:20.483Z,2.00
2023-05-24T23:38:47.383Z,2.37
2023-05-24T23:41:14.305Z,2.43
2023-05-24T23:43:41.280Z,2.30
2023-05-24T23:46:08.238Z,2.30
2023-05-24T23:48:35.211Z,2.03
2023-05-24T23:51:04.462Z,2.57
2023-05-24T23:53:31.444Z,2.20
2023-05-24T23:55:58.353Z,2.73
2023-05-24T23:58:25.661Z,1.97
